Time;durP1;ratioP1;P1;durP2;ratioP2;P2;SDS_P1;SDS_P2;PMS_P1;PMS_P2;Temp;Humidity;BMP_temperature;BMP_pressure;BME280_temperature;BME280_humidity;BME280_pressure;Samples;Min_cycle;Max_cycle;Signal;HPM_P1;HPM_P2
2021/01/08 00:01:28;;;;;;;20.80;7.68;;;;;;;;;;4918462;29;20488;-79
2021/01/08 00:03:54;;;;;;;16.67;7.18;;;;;;;;;;4918460;29;20028;-79
2021/01/08 00:06:21;;;;;;;26.13;8.77;;;;;;;;;;4916993;29;20095;-79
2021/01/08 00:08:47;;;;;;;21.58;7.90;;;;;;;;;;4918183;29;20030;-80
2021/01/08 00:11:19;;;;;;;18.33;7.32;;;;;;;;;;4918110;29;20039;-78
2021/01/08 00:13:46;;;;;;;16.88;7.13;;;;;;;;;;4916849;29;20031;-79
2021/01/08 00:16:13;;;;;;;22.80;7.47;;;;;;;;;;4916757;29;20052;-79
2021/01/08 00:18:39;;;;;;;19.77;8.40;;;;;;;;;;4918210;29;20035;-80
2021/01/08 00:21:06;;;;;;;28.27;9.30;;;;;;;;;;4916686;29;20375;-80
2021/01/08 00:23:32;;;;;;;17.92;7.00;;;;;;;;;;4918090;29;20024;-79
2021/01/08 00:25:58;;;;;;;22.63;8.10;;;;;;;;;;4917512;29;20076;-79
2021/01/08 00:28:24;;;;;;;20.60;8.13;;;;;;;;;;4917675;29;20032;-79
2021/01/08 00:30:51;;;;;;;21.52;7.93;;;;;;;;;;4917924;29;20060;-79
2021/01/08 00:33:17;;;;;;;24.58;7.20;;;;;;;;;;4917908;29;20032;-78
2021/01/08 00:35:43;;;;;;;20.60;8.27;;;;;;;;;;4916774;29;20034;-77
2021/01/08 00:38:09;;;;;;;22.60;8.25;;;;;;;;;;4917747;29;20112;-79
2021/01/08 00:40:36;;;;;;;23.83;8.23;;;;;;;;;;4917511;29;20059;-79
2021/01/08 00:43:03;;;;;;;22.15;8.60;;;;;;;;;;4917536;29;20036;-78
2021/01/08 00:45:29;;;;;;;26.65;8.77;;;;;;;;;;4917616;29;20066;-79
2021/01/08 00:47:55;;;;;;;23.70;8.77;;;;;;;;;;4917672;29;20036;-78
2021/01/08 00:50:21;;;;;;;28.75;8.65;;;;;;;;;;4916236;29;20060;-79
2021/01/08 00:52:48;;;;;;;20.92;7.43;;;;;;;;;;4916080;29;20032;-79
2021/01/08 00:55:14;;;;;;;23.13;8.45;;;;;;;;;;4917512;29;20032;-80
2021/01/08 00:57:40;;;;;;;23.48;8.38;;;;;;;;;;4917445;29;20020;-79
2021/01/08 01:00:07;;;;;;;25.63;9.13;;;;;;;;;;4917357;29;20040;-80
2021/01/08 01:02:34;;;;;;;26.00;9.02;;;;;;;;;;4917394;29;20024;-79
2021/01/08 01:05:00;;;;;;;25.98;9.63;;;;;;;;;;4916055;29;20039;-79
2021/01/08 01:07:26;;;;;;;30.00;7.95;;;;;;;;;;4917142;29;20024;-79
2021/01/08 01:09:53;;;;;;;23.58;9.40;;;;;;;;;;4917314;29;20031;-79
2021/01/08 01:12:19;;;;;;;23.02;8.68;;;;;;;;;;4917197;29;20358;-79
2021/01/08 01:14:45;;;;;;;26.38;9.55;;;;;;;;;;4917289;29;20460;-79
2021/01/08 01:17:12;;;;;;;28.17;10.27;;;;;;;;;;4917086;29;20529;-78
2021/01/08 01:19:38;;;;;;;37.10;11.93;;;;;;;;;;4917095;29;20400;-79
2021/01/08 01:22:04;;;;;;;32.47;10.18;;;;;;;;;;4917199;29;20531;-79
2021/01/08 01:24:31;;;;;;;37.45;10.63;;;;;;;;;;4917168;29;20504;-79
2021/01/08 01:26:58;;;;;;;23.48;8.65;;;;;;;;;;4917168;29;20039;-78
2021/01/08 01:29:25;;;;;;;29.90;10.07;;;;;;;;;;4917310;29;20381;-79
2021/01/08 01:31:51;;;;;;;23.23;9.57;;;;;;;;;;4916784;29;20107;-79
2021/01/08 01:34:18;;;;;;;26.52;7.68;;;;;;;;;;4916967;29;20024;-85
2021/01/08 01:36:45;;;;;;;21.77;8.25;;;;;;;;;;4914987;29;20048;-79
2021/01/08 01:39:12;;;;;;;21.45;8.10;;;;;;;;;;4916489;29;20028;-78
2021/01/08 01:41:39;;;;;;;20.52;8.02;;;;;;;;;;4916861;29;20083;-79
2021/01/08 01:44:06;;;;;;;24.83;8.25;;;;;;;;;;4915582;29;20032;-77
2021/01/08 01:46:33;;;;;;;25.95;8.23;;;;;;;;;;4915648;29;20505;-78
2021/01/08 01:48:59;;;;;;;18.88;8.38;;;;;;;;;;4917095;29;20430;-79
2021/01/08 01:51:25;;;;;;;19.10;8.07;;;;;;;;;;4916830;29;20192;-78
2021/01/08 01:53:52;;;;;;;18.02;7.63;;;;;;;;;;4916785;29;20028;-79
2021/01/08 01:56:18;;;;;;;23.73;8.77;;;;;;;;;;4915492;29;20036;-80
2021/01/08 01:58:45;;;;;;;16.02;6.53;;;;;;;;;;4916680;29;20057;-79
2021/01/08 02:01:11;;;;;;;19.85;7.00;;;;;;;;;;4916561;29;20079;-79
2021/01/08 02:03:55;;;;;;;19.42;5.95;;;;;;;;;;4916479;29;20024;-79
2021/01/08 02:06:24;;;;;;;19.48;7.07;;;;;;;;;;4915454;29;20069;-79
2021/01/08 02:08:53;;;;;;;18.00;7.28;;;;;;;;;;4915383;29;20028;-79
2021/01/08 02:11:23;;;;;;;18.80;7.07;;;;;;;;;;4916580;29;20498;-79
2021/01/08 02:13:52;;;;;;;17.42;6.72;;;;;;;;;;4915182;29;20028;-79
2021/01/08 02:16:20;;;;;;;20.05;7.72;;;;;;;;;;4916702;29;20071;-79
2021/01/08 02:18:48;;;;;;;19.02;7.10;;;;;;;;;;4916463;29;20096;-79
2021/01/08 02:21:21;;;;;;;18.67;7.18;;;;;;;;;;4916410;29;20441;-79
2021/01/08 02:24:13;;;;;;;14.63;6.57;;;;;;;;;;4915204;29;20020;-79
2021/01/08 02:26:40;;;;;;;17.95;6.45;;;;;;;;;;4915658;29;20040;-79
2021/01/08 02:29:06;;;;;;;19.13;6.45;;;;;;;;;;4916338;29;20469;-79
2021/01/08 02:31:33;;;;;;;19.20;7.22;;;;;;;;;;4915216;29;20051;-79
2021/01/08 02:33:59;;;;;;;22.35;7.32;;;;;;;;;;4916459;29;20044;-80
2021/01/08 02:36:27;;;;;;;16.60;6.68;;;;;;;;;;4916453;29;20481;-81
2021/01/08 02:38:54;;;;;;;22.60;7.82;;;;;;;;;;4916358;29;20465;-79
2021/01/08 02:41:21;;;;;;;17.25;6.65;;;;;;;;;;4915103;29;20506;-79
2021/01/08 02:43:48;;;;;;;18.73;7.07;;;;;;;;;;4916403;29;20032;-80
2021/01/08 02:46:14;;;;;;;18.33;6.47;;;;;;;;;;4916380;29;20028;-79
2021/01/08 02:48:41;;;;;;;16.77;6.43;;;;;;;;;;4918139;29;20075;-80
2021/01/08 02:51:07;;;;;;;18.00;7.15;;;;;;;;;;4919698;29;20473;-80
2021/01/08 02:53:37;;;;;;;17.60;6.85;;;;;;;;;;4919741;29;20537;-79
2021/01/08 02:56:09;;;;;;;19.75;7.50;;;;;;;;;;4918400;29;20035;-80
2021/01/08 02:58:35;;;;;;;17.40;7.15;;;;;;;;;;4918197;29;20039;-80
2021/01/08 03:01:03;;;;;;;17.63;7.72;;;;;;;;;;4918117;29;20036;-79
2021/01/08 03:03:30;;;;;;;16.50;6.95;;;;;;;;;;4917993;29;20047;-79
2021/01/08 03:05:58;;;;;;;14.38;6.25;;;;;;;;;;4919309;29;20048;-79
2021/01/08 03:08:25;;;;;;;16.92;6.25;;;;;;;;;;4919441;29;20111;-78
2021/01/08 03:10:52;;;;;;;18.67;6.05;;;;;;;;;;4919362;29;20064;-79
2021/01/08 03:13:19;;;;;;;17.85;7.03;;;;;;;;;;4918987;29;20430;-80
2021/01/08 03:15:45;;;;;;;20.00;6.60;;;;;;;;;;4919215;29;20474;-79
2021/01/08 03:18:11;;;;;;;15.52;6.53;;;;;;;;;;4919198;29;20115;-77
2021/01/08 03:20:38;;;;;;;17.23;6.47;;;;;;;;;;4919109;29;20496;-80
2021/01/08 03:23:04;;;;;;;17.65;7.13;;;;;;;;;;4917827;29;20079;-79
2021/01/08 03:25:31;;;;;;;20.55;7.25;;;;;;;;;;4919398;29;20381;-79
2021/01/08 03:27:57;;;;;;;16.13;6.47;;;;;;;;;;4918939;29;20059;-79
2021/01/08 03:30:24;;;;;;;17.55;6.80;;;;;;;;;;4919041;29;20370;-79
2021/01/08 03:32:50;;;;;;;21.73;7.78;;;;;;;;;;4917743;29;20393;-80
2021/01/08 03:35:16;;;;;;;21.38;8.00;;;;;;;;;;4917369;29;20036;-79
2021/01/08 03:37:42;;;;;;;19.10;7.63;;;;;;;;;;4918839;29;20089;-78
2021/01/08 03:40:09;;;;;;;18.55;7.30;;;;;;;;;;4918342;29;20051;-78
2021/01/08 03:42:35;;;;;;;19.10;7.63;;;;;;;;;;4917428;29;20072;-80
2021/01/08 03:45:02;;;;;;;24.23;9.43;;;;;;;;;;4918636;29;20393;-80
2021/01/08 03:47:28;;;;;;;19.52;8.07;;;;;;;;;;4918749;29;20118;-79
2021/01/08 03:49:55;;;;;;;24.63;9.38;;;;;;;;;;4918742;29;20156;-79
2021/01/08 03:52:21;;;;;;;20.25;7.70;;;;;;;;;;4917577;29;20075;-80
2021/01/08 03:54:48;;;;;;;32.40;9.15;;;;;;;;;;4918500;29;20029;-79
2021/01/08 03:57:14;;;;;;;20.02;7.43;;;;;;;;;;4918511;29;20020;-80
2021/01/08 03:59:40;;;;;;;23.48;8.40;;;;;;;;;;4917529;29;20032;-79
2021/01/08 04:02:07;;;;;;;24.63;9.10;;;;;;;;;;4918492;29;20027;-79
2021/01/08 04:04:33;;;;;;;22.75;10.73;;;;;;;;;;4918601;29;20091;-79
2021/01/08 04:07:00;;;;;;;32.20;10.88;;;;;;;;;;4918283;29;20056;-78
2021/01/08 04:09:26;;;;;;;30.10;11.15;;;;;;;;;;4918327;29;20103;-77
2021/01/08 04:11:52;;;;;;;25.02;10.48;;;;;;;;;;4918190;29;20474;-80
2021/01/08 04:14:18;;;;;;;25.02;10.77;;;;;;;;;;4918283;29;20103;-80
2021/01/08 04:16:45;;;;;;;25.45;10.27;;;;;;;;;;4918191;29;20079;-80
2021/01/08 04:19:11;;;;;;;27.77;11.95;;;;;;;;;;4917902;29;20039;-80
2021/01/08 04:21:38;;;;;;;29.60;10.88;;;;;;;;;;4918142;29;20091;-80
2021/01/08 04:24:05;;;;;;;28.42;11.18;;;;;;;;;;4918074;29;20028;-80
2021/01/08 04:26:31;;;;;;;29.83;10.32;;;;;;;;;;4918056;29;20043;-80
2021/01/08 04:28:58;;;;;;;20.75;9.73;;;;;;;;;;4918062;29;20497;-80
2021/01/08 04:31:24;;;;;;;23.73;9.68;;;;;;;;;;4917988;29;20052;-80
2021/01/08 04:33:51;;;;;;;25.83;10.93;;;;;;;;;;4917739;29;20055;-80
2021/01/08 04:36:17;;;;;;;27.63;9.90;;;;;;;;;;4917908;29;20051;-80
2021/01/08 04:38:44;;;;;;;27.65;10.13;;;;;;;;;;4916500;29;20038;-80
2021/01/08 04:41:10;;;;;;;26.25;10.63;;;;;;;;;;4917672;29;20058;-80
2021/01/08 04:43:37;;;;;;;21.10;8.93;;;;;;;;;;4917620;29;20055;-80
2021/01/08 04:46:14;;;;;;;21.40;9.40;;;;;;;;;;4917455;29;20036;-80
2021/01/08 04:48:42;;;;;;;20.67;8.77;;;;;;;;;;4916460;29;20032;-81
2021/01/08 04:51:10;;;;;;;23.50;8.90;;;;;;;;;;4916315;29;20056;-81
2021/01/08 04:53:37;;;;;;;25.65;10.60;;;;;;;;;;4916323;29;20027;-80
2021/01/08 04:56:05;;;;;;;27.08;11.10;;;;;;;;;;4917421;29;20036;-80
2021/01/08 04:58:32;;;;;;;21.23;9.07;;;;;;;;;;4916004;29;20055;-80
2021/01/08 05:01:01;;;;;;;22.52;10.07;;;;;;;;;;4917095;29;20039;-80
2021/01/08 05:03:28;;;;;;;22.08;8.80;;;;;;;;;;4917306;29;20055;-79
2021/01/08 05:05:55;;;;;;;24.73;10.02;;;;;;;;;;4916057;29;20552;-80
2021/01/08 05:08:21;;;;;;;26.50;10.52;;;;;;;;;;4917291;29;20024;-78
2021/01/08 05:10:48;;;;;;;30.85;10.98;;;;;;;;;;4915687;29;20036;-80
2021/01/08 05:13:14;;;;;;;32.28;11.43;;;;;;;;;;4917224;29;20107;-80
2021/01/08 05:15:40;;;;;;;26.20;9.50;;;;;;;;;;4915714;29;20032;-80
2021/01/08 05:18:07;;;;;;;24.58;9.25;;;;;;;;;;4917109;29;20064;-79
2021/01/08 05:20:34;;;;;;;29.17;9.55;;;;;;;;;;4917206;29;20040;-79
2021/01/08 05:23:00;;;;;;;22.92;8.63;;;;;;;;;;4917051;29;20087;-80
2021/01/08 05:25:28;;;;;;;22.30;9.63;;;;;;;;;;4916848;29;20123;-79
2021/01/08 05:27:54;;;;;;;25.38;9.30;;;;;;;;;;4917194;29;20108;-79
2021/01/08 05:30:23;;;;;;;30.42;11.15;;;;;;;;;;4916966;29;20031;-79
2021/01/08 05:32:59;;;;;;;22.00;10.00;;;;;;;;;;4917097;29;20034;-80
2021/01/08 05:35:26;;;;;;;23.45;9.10;;;;;;;;;;4915425;29;20036;-80
2021/01/08 05:37:56;;;;;;;29.05;11.05;;;;;;;;;;4917085;29;20036;-80
2021/01/08 05:40:26;;;;;;;25.13;8.93;;;;;;;;;;4916740;29;20048;-80
2021/01/08 05:42:53;;;;;;;28.77;10.30;;;;;;;;;;4916857;29;20043;-80
2021/01/08 05:45:20;;;;;;;25.48;9.70;;;;;;;;;;4916939;29;20055;-80
2021/01/08 05:47:48;;;;;;;23.42;9.27;;;;;;;;;;4916884;29;20043;-80
2021/01/08 05:50:14;;;;;;;25.35;9.25;;;;;;;;;;4915515;29;20397;-80
2021/01/08 05:52:42;;;;;;;24.83;9.65;;;;;;;;;;4916828;29;20386;-80
2021/01/08 05:55:12;;;;;;;20.15;8.95;;;;;;;;;;4916666;29;20111;-79
2021/01/08 05:57:40;;;;;;;23.67;9.82;;;;;;;;;;4915229;29;20033;-80
2021/01/08 06:00:07;;;;;;;24.35;9.73;;;;;;;;;;4919332;29;20052;-80
2021/01/08 06:02:33;;;;;;;27.27;9.52;;;;;;;;;;4916007;29;20028;-79
2021/01/08 06:04:59;;;;;;;20.77;9.00;;;;;;;;;;4915146;29;20055;-79
2021/01/08 06:07:28;;;;;;;27.35;9.63;;;;;;;;;;4913621;29;20444;-80
2021/01/08 06:09:54;;;;;;;25.58;9.52;;;;;;;;;;4914218;29;20102;-80
2021/01/08 06:12:21;;;;;;;28.20;9.98;;;;;;;;;;4912088;29;20033;-78
2021/01/08 06:14:48;;;;;;;27.67;9.73;;;;;;;;;;4895998;29;20029;-79
2021/01/08 06:17:17;;;;;;;29.65;10.15;;;;;;;;;;4897799;29;20085;-80
2021/01/08 06:19:45;;;;;;;25.35;9.48;;;;;;;;;;4898574;29;20038;-79
2021/01/08 06:22:11;;;;;;;24.05;9.43;;;;;;;;;;4904633;29;20193;-79
2021/01/08 06:24:37;;;;;;;24.70;8.30;;;;;;;;;;4910988;29;20032;-78
2021/01/08 06:27:04;;;;;;;30.95;11.20;;;;;;;;;;4909955;29;20035;-79
2021/01/08 06:29:33;;;;;;;29.52;10.52;;;;;;;;;;4911089;29;20033;-79
2021/01/08 06:32:17;;;;;;;27.60;9.65;;;;;;;;;;4911963;29;20028;-79
2021/01/08 06:34:46;;;;;;;23.90;8.85;;;;;;;;;;4912422;29;20032;-79
2021/01/08 06:37:18;;;;;;;19.65;8.27;;;;;;;;;;4909694;29;20063;-78
2021/01/08 06:39:45;;;;;;;25.83;8.65;;;;;;;;;;4912627;29;20048;-78
2021/01/08 06:42:25;;;;;;;21.17;7.40;;;;;;;;;;4910408;29;20049;-79
2021/01/08 06:44:51;;;;;;;23.25;8.40;;;;;;;;;;4907541;29;20053;-78
2021/01/08 06:47:22;;;;;;;23.63;9.05;;;;;;;;;;4909655;29;20378;-79
2021/01/08 06:49:52;;;;;;;19.02;7.10;;;;;;;;;;4918333;29;20024;-77
2021/01/08 06:52:18;;;;;;;22.10;8.27;;;;;;;;;;4918223;29;20445;-78
2021/01/08 06:54:44;;;;;;;19.15;7.53;;;;;;;;;;4918308;29;20024;-78
2021/01/08 06:57:19;;;;;;;23.60;7.65;;;;;;;;;;4918024;29;20391;-79
2021/01/08 06:59:51;;;;;;;19.60;7.65;;;;;;;;;;4918168;29;20051;-78
2021/01/08 07:02:18;;;;;;;15.25;6.40;;;;;;;;;;4918283;29;20060;-85
2021/01/08 07:04:44;;;;;;;25.63;9.05;;;;;;;;;;4915002;29;20036;-85
2021/01/08 07:07:14;;;;;;;22.83;9.25;;;;;;;;;;4899713;29;20116;-88
2021/01/08 07:09:41;;;;;;;24.95;8.60;;;;;;;;;;4898894;29;20478;-82
2021/01/08 07:12:11;;;;;;;25.73;9.10;;;;;;;;;;4899029;29;20119;-78
2021/01/08 07:14:38;;;;;;;22.33;8.40;;;;;;;;;;4899006;29;20029;-79
2021/01/08 07:17:12;;;;;;;24.27;8.27;;;;;;;;;;4905851;29;20419;-79
2021/01/08 07:19:46;;;;;;;20.13;7.95;;;;;;;;;;4906762;29;20418;-78
2021/01/08 07:22:19;;;;;;;25.38;9.73;;;;;;;;;;4909560;29;20032;-79
2021/01/08 07:24:48;;;;;;;24.02;9.00;;;;;;;;;;4920017;29;20032;-80
2021/01/08 07:27:18;;;;;;;27.92;10.60;;;;;;;;;;4917626;29;20038;-78
2021/01/08 07:30:11;;;;;;;20.40;8.35;;;;;;;;;;4917524;29;20062;-78
2021/01/08 07:32:38;;;;;;;35.67;12.05;;;;;;;;;;4918661;29;20048;-80
2021/01/08 07:35:17;;;;;;;26.83;9.55;;;;;;;;;;4917532;29;20024;-79
2021/01/08 07:38:02;;;;;;;26.83;12.05;;;;;;;;;;4917497;29;20028;-79
2021/01/08 07:40:29;;;;;;;23.33;8.95;;;;;;;;;;4917088;29;20059;-78
2021/01/08 07:42:56;;;;;;;21.90;8.52;;;;;;;;;;4917433;29;20171;-80
2021/01/08 07:45:22;;;;;;;22.02;9.00;;;;;;;;;;4917245;29;20127;-79
2021/01/08 07:47:48;;;;;;;33.47;9.93;;;;;;;;;;4918659;29;20026;-78
2021/01/08 07:50:15;;;;;;;30.48;10.00;;;;;;;;;;4917278;29;20087;-79
2021/01/08 07:52:45;;;;;;;24.38;8.50;;;;;;;;;;4917060;29;20112;-79
2021/01/08 07:55:12;;;;;;;28.23;9.57;;;;;;;;;;4917137;29;20036;-79
2021/01/08 07:57:57;;;;;;;29.10;10.20;;;;;;;;;;4913946;29;20087;-78
2021/01/08 08:00:27;;;;;;;27.77;9.43;;;;;;;;;;4898224;29;20100;-79
2021/01/08 08:02:56;;;;;;;28.02;9.60;;;;;;;;;;4899561;29;20418;-79
2021/01/08 08:05:26;;;;;;;24.80;9.95;;;;;;;;;;4914895;29;20032;-79
2021/01/08 08:07:55;;;;;;;32.42;9.80;;;;;;;;;;4917038;29;20036;-79
2021/01/08 08:10:25;;;;;;;28.83;9.73;;;;;;;;;;4917000;29;20024;-80
2021/01/08 08:12:51;;;;;;;32.10;10.90;;;;;;;;;;4918169;29;20370;-79
2021/01/08 08:15:18;;;;;;;35.05;10.25;;;;;;;;;;4916644;29;20035;-79
2021/01/08 08:17:45;;;;;;;24.50;8.98;;;;;;;;;;4910187;29;20092;-76
2021/01/08 08:20:21;;;;;;;27.15;9.52;;;;;;;;;;4898886;29;20390;-79
2021/01/08 08:22:47;;;;;;;34.53;11.27;;;;;;;;;;4897401;29;20024;-79
2021/01/08 08:25:24;;;;;;;30.48;11.82;;;;;;;;;;4897744;29;20040;-79
2021/01/08 08:27:53;;;;;;;22.98;10.02;;;;;;;;;;4901637;29;20027;-78
2021/01/08 08:30:20;;;;;;;28.30;10.95;;;;;;;;;;4897610;29;20394;-78
2021/01/08 08:32:46;;;;;;;28.88;11.43;;;;;;;;;;4905711;29;20502;-77
2021/01/08 08:35:13;;;;;;;24.15;8.25;;;;;;;;;;4917476;29;20038;-78
2021/01/08 08:37:57;;;;;;;27.60;10.63;;;;;;;;;;4916376;29;20533;-77
2021/01/08 08:40:25;;;;;;;17.75;8.02;;;;;;;;;;4913920;29;20071;-77
2021/01/08 08:42:52;;;;;;;37.15;9.82;;;;;;;;;;4913643;29;20398;-77
2021/01/08 08:45:19;;;;;;;25.65;8.70;;;;;;;;;;4912567;29;20025;-78
2021/01/08 08:47:47;;;;;;;35.65;9.45;;;;;;;;;;4902610;29;20051;-79
2021/01/08 08:50:14;;;;;;;21.55;8.70;;;;;;;;;;4916241;29;20051;-79
2021/01/08 08:52:40;;;;;;;26.30;8.93;;;;;;;;;;4916208;29;20035;-78
2021/01/08 08:55:06;;;;;;;21.20;8.18;;;;;;;;;;4917564;29;20040;-78
2021/01/08 08:57:32;;;;;;;24.55;8.63;;;;;;;;;;4917396;29;20066;-79
2021/01/08 08:59:59;;;;;;;23.67;8.38;;;;;;;;;;4912830;29;20071;-78
2021/01/08 09:02:26;;;;;;;22.40;6.93;;;;;;;;;;4897081;29;20084;-78
2021/01/08 09:04:56;;;;;;;19.88;8.27;;;;;;;;;;4897146;29;20060;-77
2021/01/08 09:07:25;;;;;;;28.20;7.28;;;;;;;;;;4897083;29;20037;-78
2021/01/08 09:09:52;;;;;;;23.25;8.15;;;;;;;;;;4896954;29;20458;-79
2021/01/08 09:12:37;;;;;;;25.23;8.23;;;;;;;;;;4899955;29;20025;-78
2021/01/08 09:15:06;;;;;;;20.42;7.55;;;;;;;;;;4896907;29;20032;-79
2021/01/08 09:17:34;;;;;;;20.88;7.70;;;;;;;;;;4896853;29;20032;-79
2021/01/08 09:20:02;;;;;;;15.85;7.65;;;;;;;;;;4896696;29;20040;-76
2021/01/08 09:22:29;;;;;;;28.38;8.77;;;;;;;;;;4900790;29;20033;-79
2021/01/08 09:24:58;;;;;;;29.42;11.93;;;;;;;;;;4904754;29;20056;-80
2021/01/08 09:27:26;;;;;;;24.88;9.48;;;;;;;;;;4905909;29;20103;-80
2021/01/08 09:29:52;;;;;;;21.33;8.13;;;;;;;;;;4907825;29;20080;-79
2021/01/08 09:32:31;;;;;;;25.85;8.65;;;;;;;;;;4900621;29;20060;-81
2021/01/08 09:35:02;;;;;;;29.55;9.75;;;;;;;;;;4896654;29;20100;-79
2021/01/08 09:37:35;;;;;;;27.55;9.27;;;;;;;;;;4909791;29;20111;-80
2021/01/08 09:40:02;;;;;;;26.60;8.82;;;;;;;;;;4915327;29;20401;-78
2021/01/08 09:42:35;;;;;;;22.63;8.20;;;;;;;;;;4916817;29;20028;-78
2021/01/08 09:45:01;;;;;;;22.50;8.40;;;;;;;;;;4908669;29;20032;-77
2021/01/08 09:47:34;;;;;;;23.80;8.00;;;;;;;;;;4897776;29;20387;-78
2021/01/08 09:50:01;;;;;;;23.92;8.65;;;;;;;;;;4904416;29;20059;-79
2021/01/08 09:52:28;;;;;;;22.67;8.90;;;;;;;;;;4909984;29;20036;-80
2021/01/08 09:54:54;;;;;;;26.25;8.85;;;;;;;;;;4904788;29;20028;-78
2021/01/08 09:57:28;;;;;;;31.77;7.88;;;;;;;;;;4896638;29;20435;-78
2021/01/08 09:59:54;;;;;;;;;;;;;;;;;;4909580;29;20509;-78
2021/01/08 10:02:32;;;;;;;24.77;7.80;;;;;;;;;;4910306;29;19908;-76
2021/01/08 10:04:58;;;;;;;27.85;8.27;;;;;;;;;;4911397;29;20027;-77
2021/01/08 10:07:24;;;;;;;19.77;7.82;;;;;;;;;;4910723;29;20060;-79
2021/01/08 10:09:55;;;;;;;26.95;10.10;;;;;;;;;;4902268;29;20037;-79
2021/01/08 10:12:22;;;;;;;23.42;8.30;;;;;;;;;;4910802;29;20036;-79
2021/01/08 10:14:48;;;;;;;31.40;8.95;;;;;;;;;;4909450;29;20088;-79
2021/01/08 10:17:17;;;;;;;22.40;8.30;;;;;;;;;;4908785;29;20032;-78
2021/01/08 10:19:47;;;;;;;19.33;6.97;;;;;;;;;;4909977;29;20100;-77
2021/01/08 10:22:20;;;;;;;20.85;8.05;;;;;;;;;;4909522;29;20032;-78
2021/01/08 10:24:46;;;;;;;22.65;7.93;;;;;;;;;;4908946;29;20051;-78
2021/01/08 10:27:12;;;;;;;28.67;8.75;;;;;;;;;;4911864;29;20043;-81
2021/01/08 10:29:39;;;;;;;23.58;8.30;;;;;;;;;;4908098;29;20064;-78
2021/01/08 10:32:06;;;;;;;20.77;7.78;;;;;;;;;;4908968;29;20033;-77
2021/01/08 10:34:50;;;;;;;25.25;8.40;;;;;;;;;;4906322;29;20039;-75
2021/01/08 10:37:17;;;;;;;25.27;8.00;;;;;;;;;;4911403;29;20179;-77
2021/01/08 10:39:43;;;;;;;22.23;8.65;;;;;;;;;;4909460;29;20040;-78
2021/01/08 10:42:10;;;;;;;21.83;8.00;;;;;;;;;;4909084;29;20043;-78
2021/01/08 10:44:37;;;;;;;32.00;9.43;;;;;;;;;;4908479;29;20382;-78
2021/01/08 10:47:04;;;;;;;29.80;9.02;;;;;;;;;;4909978;29;20020;-78
2021/01/08 10:49:30;;;;;;;22.65;7.72;;;;;;;;;;4908044;29;20032;-79
2021/01/08 10:51:56;;;;;;;22.23;8.30;;;;;;;;;;4909697;29;20028;-78
2021/01/08 10:54:22;;;;;;;27.13;8.02;;;;;;;;;;4909580;29;20032;-78
2021/01/08 10:56:48;;;;;;;24.52;8.85;;;;;;;;;;4908142;29;20090;-77
2021/01/08 10:59:15;;;;;;;31.50;9.57;;;;;;;;;;4910579;29;20393;-81
2021/01/08 11:01:45;;;;;;;23.75;8.02;;;;;;;;;;4907713;29;20028;-80
2021/01/08 11:04:12;;;;;;;29.85;9.75;;;;;;;;;;4907902;29;20032;-80
2021/01/08 11:06:38;;;;;;;31.08;9.65;;;;;;;;;;4906385;29;20058;-80
2021/01/08 11:09:05;;;;;;;30.88;9.23;;;;;;;;;;4906657;29;20390;-79
2021/01/08 11:11:31;;;;;;;34.13;10.77;;;;;;;;;;4908123;29;20111;-80
2021/01/08 11:13:57;;;;;;;23.08;8.05;;;;;;;;;;4913575;29;20394;-80
2021/01/08 11:16:23;;;;;;;23.45;7.90;;;;;;;;;;4918085;29;20024;-80
2021/01/08 11:18:49;;;;;;;21.23;8.20;;;;;;;;;;4918035;29;20497;-81
2021/01/08 11:21:19;;;;;;;25.65;8.07;;;;;;;;;;4918443;29;20119;-81
2021/01/08 11:23:46;;;;;;;21.73;8.10;;;;;;;;;;4917754;29;20630;-81
2021/01/08 11:26:12;;;;;;;17.20;6.57;;;;;;;;;;4917663;29;20068;-81
2021/01/08 11:28:38;;;;;;;22.52;7.55;;;;;;;;;;4917766;29;20028;-81
2021/01/08 11:31:05;;;;;;;19.88;7.28;;;;;;;;;;4917355;29;20032;-80
2021/01/08 11:33:31;;;;;;;20.85;7.70;;;;;;;;;;4909071;29;20039;-80
2021/01/08 11:35:57;;;;;;;19.38;8.68;;;;;;;;;;4916024;29;20488;-79
2021/01/08 11:38:24;;;;;;;22.35;9.38;;;;;;;;;;4917489;29;20035;-80
2021/01/08 11:40:50;;;;;;;27.15;11.38;;;;;;;;;;4917287;29;20056;-82
2021/01/08 11:43:16;;;;;;;25.85;11.52;;;;;;;;;;4917201;29;20056;-81
2021/01/08 11:45:48;;;;;;;23.48;9.48;;;;;;;;;;4917398;29;20072;-79
2021/01/08 11:48:14;;;;;;;18.88;9.50;;;;;;;;;;4911410;29;20035;-80
2021/01/08 11:50:40;;;;;;;29.10;10.38;;;;;;;;;;4903325;29;20071;-80
2021/01/08 11:53:06;;;;;;;18.27;9.15;;;;;;;;;;4905883;29;20034;-80
2021/01/08 11:55:32;;;;;;;21.02;9.30;;;;;;;;;;4906930;29;20038;-78
2021/01/08 11:57:59;;;;;;;17.73;8.00;;;;;;;;;;4907040;29;20016;-82
2021/01/08 12:00:25;;;;;;;22.20;9.65;;;;;;;;;;4909187;29;20393;-78
2021/01/08 12:02:51;;;;;;;20.55;9.32;;;;;;;;;;4907872;29;20033;-82
2021/01/08 12:05:17;;;;;;;16.75;7.82;;;;;;;;;;4908214;29;20036;-81
2021/01/08 12:07:43;;;;;;;22.33;8.48;;;;;;;;;;4909338;29;20025;-80
2021/01/08 12:10:10;;;;;;;24.77;9.52;;;;;;;;;;4907510;29;20047;-79
2021/01/08 12:12:36;;;;;;;27.08;10.43;;;;;;;;;;4907870;29;20032;-79
2021/01/08 12:15:03;;;;;;;19.58;9.32;;;;;;;;;;4907788;29;20439;-79
2021/01/08 12:17:30;;;;;;;25.67;9.35;;;;;;;;;;4905280;29;20030;-79
2021/01/08 12:19:56;;;;;;;18.95;9.27;;;;;;;;;;4897332;29;20450;-78
2021/01/08 12:22:22;;;;;;;17.27;8.10;;;;;;;;;;4897547;29;20056;-78
2021/01/08 12:24:48;;;;;;;22.00;9.45;;;;;;;;;;4898790;29;20032;-77
2021/01/08 12:27:16;;;;;;;22.15;9.35;;;;;;;;;;4898970;29;20028;-79
2021/01/08 12:29:42;;;;;;;26.45;9.35;;;;;;;;;;4899117;29;20475;-80
2021/01/08 12:32:08;;;;;;;18.60;8.95;;;;;;;;;;4897899;29;20029;-79
2021/01/08 12:34:35;;;;;;;20.60;8.40;;;;;;;;;;4898649;29;20033;-79
2021/01/08 12:37:03;;;;;;;21.88;9.57;;;;;;;;;;4907256;29;20032;-80
2021/01/08 12:39:31;;;;;;;23.30;9.30;;;;;;;;;;4917259;29;20051;-80
2021/01/08 12:41:57;;;;;;;20.83;8.27;;;;;;;;;;4917766;29;20039;-78
2021/01/08 12:44:23;;;;;;;22.20;9.65;;;;;;;;;;4917557;29;20454;-80
2021/01/08 12:46:50;;;;;;;20.27;9.85;;;;;;;;;;4917398;29;20032;-79
2021/01/08 12:49:16;;;;;;;20.77;9.73;;;;;;;;;;4917336;29;20032;-79
2021/01/08 12:51:42;;;;;;;28.85;10.82;;;;;;;;;;4917406;29;20097;-80
2021/01/08 12:54:08;;;;;;;21.95;10.38;;;;;;;;;;4917305;29;20442;-79
2021/01/08 12:56:35;;;;;;;26.95;10.07;;;;;;;;;;4917551;29;20059;-80
2021/01/08 12:59:01;;;;;;;25.23;9.05;;;;;;;;;;4917430;29;20024;-77
2021/01/08 13:01:27;;;;;;;25.13;9.90;;;;;;;;;;4917285;29;20044;-78
2021/01/08 13:03:53;;;;;;;20.77;8.20;;;;;;;;;;4917438;29;20100;-78
2021/01/08 13:06:26;;;;;;;28.42;10.70;;;;;;;;;;4916959;29;20038;-79
2021/01/08 13:08:53;;;;;;;24.77;10.43;;;;;;;;;;4917058;29;20104;-80
2021/01/08 13:11:19;;;;;;;27.05;11.65;;;;;;;;;;4914102;29;20071;-79
2021/01/08 13:13:45;;;;;;;24.92;9.40;;;;;;;;;;4908745;29;20398;-79
2021/01/08 13:16:12;;;;;;;24.73;9.65;;;;;;;;;;4916407;29;20070;-80
2021/01/08 13:18:38;;;;;;;21.52;9.00;;;;;;;;;;4915739;29;20438;-79
2021/01/08 13:21:04;;;;;;;19.67;8.98;;;;;;;;;;4916962;29;20040;-78
2021/01/08 13:23:30;;;;;;;29.63;10.35;;;;;;;;;;4915391;29;20032;-79
2021/01/08 13:25:56;;;;;;;21.40;8.05;;;;;;;;;;4916915;29;20036;-78
2021/01/08 13:28:22;;;;;;;21.05;7.95;;;;;;;;;;4917136;29;20512;-78
2021/01/08 13:30:48;;;;;;;15.82;7.80;;;;;;;;;;4917514;29;20079;-78
2021/01/08 13:33:14;;;;;;;16.38;7.38;;;;;;;;;;4900564;29;20123;-78
2021/01/08 13:35:41;;;;;;;18.45;8.13;;;;;;;;;;4902156;29;20028;-80
2021/01/08 13:38:07;;;;;;;18.27;9.20;;;;;;;;;;4910359;29;20417;-78
2021/01/08 13:40:33;;;;;;;21.27;7.90;;;;;;;;;;4915104;29;20397;-79
2021/01/08 13:42:59;;;;;;;21.67;7.97;;;;;;;;;;4915402;29;20038;-79
2021/01/08 13:45:25;;;;;;;18.60;7.95;;;;;;;;;;4915324;29;20028;-79
2021/01/08 13:47:51;;;;;;;22.23;8.32;;;;;;;;;;4915272;29;20054;-78
2021/01/08 13:50:17;;;;;;;21.65;8.90;;;;;;;;;;4915822;29;20032;-78
2021/01/08 13:52:44;;;;;;;19.58;7.70;;;;;;;;;;4917202;29;20032;-76
2021/01/08 13:55:11;;;;;;;18.50;7.93;;;;;;;;;;4915462;29;20055;-78
2021/01/08 13:57:37;;;;;;;17.33;7.93;;;;;;;;;;4914842;29;20477;-79
2021/01/08 14:00:07;;;;;;;21.50;7.82;;;;;;;;;;4915348;29;20421;-79
2021/01/08 14:02:34;;;;;;;19.10;8.48;;;;;;;;;;4915315;29;20051;-79
2021/01/08 14:05:00;;;;;;;19.20;9.40;;;;;;;;;;4915363;29;20039;-79
2021/01/08 14:07:26;;;;;;;19.27;8.70;;;;;;;;;;4916507;29;20518;-79
2021/01/08 14:09:53;;;;;;;19.35;8.25;;;;;;;;;;4915316;29;20056;-79
2021/01/08 14:12:19;;;;;;;20.50;8.10;;;;;;;;;;4916320;29;20107;-79
2021/01/08 14:14:45;;;;;;;18.77;8.85;;;;;;;;;;4916576;29;20032;-77
2021/01/08 14:17:11;;;;;;;22.05;8.88;;;;;;;;;;4915266;29;20032;-79
2021/01/08 14:19:37;;;;;;;20.90;9.20;;;;;;;;;;4915091;29;20438;-78
2021/01/08 14:22:03;;;;;;;20.65;9.20;;;;;;;;;;4915148;29;20036;-77
2021/01/08 14:24:29;;;;;;;18.60;8.98;;;;;;;;;;4915151;29;20491;-76
2021/01/08 14:26:56;;;;;;;18.38;8.15;;;;;;;;;;4916208;29;20079;-79
2021/01/08 14:29:22;;;;;;;21.00;8.57;;;;;;;;;;4914879;29;20032;-79
2021/01/08 14:31:50;;;;;;;17.88;7.72;;;;;;;;;;4916390;29;20030;-78